»·PEaware :: N626N KGJT-KRIF

N626N :: KGJT-KRIF

FLIGHT INFORMATION

Flight Status: Arrived
Operator: Privately registered:
United States
More flights under this callsign
Pilot: Andy P. (22680)
Aircraft: Unknown
(B60T)
More flights by this aircraft type
Origin: KGJT Grand Junction Regl
United States
Destination: KRIF Richfield Mun
United States
More flights between these airports :: More routes between these airports
Route: JNC EBOVE
File this flight plan on PilotEdge
Remarks:
Altitude:
(Current/Filed)
22,000ft
Speed:
(Current/Filed)
280kts
Departed: 28-Sep-19 02:31 PM
Arrived: 28-Sep-19 03:19 PM
Distance/Time
Traveled:
168nm/0:47
Distance/Time
To Go:
Arrived

Flight Plot

Page will automatically refresh every two minutes.

Flight plan parsing failed; only flown route is shown


Map Options




Map Legend


Flown Route
Filed Route
Departure Airport
Arrival Airport
Navaid (VOR, NDB)
Fix

Horizontal Profiles

Position Reports

Time Latitude Longitude Heading Altitude Ground
Speed
28-Sep-19 14:14 39.121593 -108.523895 304 4861ft 0kts
28-Sep-19 14:15 39.121593 -108.523895 304 4861ft 0kts
28-Sep-19 14:16 39.121593 -108.523895 304 4861ft 0kts
28-Sep-19 14:16 39.121593 -108.523896 304 4861ft 0kts
28-Sep-19 14:18 39.121595 -108.523899 304 4861ft 0kts
28-Sep-19 14:19 39.121596 -108.523901 304 4861ft 0kts
28-Sep-19 14:19 39.121597 -108.523903 304 4861ft 0kts
28-Sep-19 14:20 39.121599 -108.523906 304 4861ft 0kts
28-Sep-19 14:22 39.121600 -108.523909 304 4861ft 0kts
28-Sep-19 14:22 39.121601 -108.523911 304 4861ft 0kts
28-Sep-19 14:23 39.121603 -108.523913 304 4861ft 0kts
28-Sep-19 14:24 39.121604 -108.523916 304 4861ft 0kts
28-Sep-19 14:25 39.122679 -108.524350 305 4861ft 14kts
28-Sep-19 14:26 39.125742 -108.529964 305 4861ft 18kts
28-Sep-19 14:27 39.128856 -108.535605 304 4861ft 19kts
28-Sep-19 14:28 39.132034 -108.541356 304 4861ft 19kts
28-Sep-19 14:29 39.134734 -108.543872 122 4861ft 5kts
28-Sep-19 14:30 39.119419 -108.515874 129 5509ft 178kts
28-Sep-19 14:31 39.081200 -108.506223 235 7929ft 178kts
28-Sep-19 14:32 39.086631 -108.573765 268 10512ft 193kts
28-Sep-19 14:33 39.082679 -108.641072 252 13375ft 185kts
28-Sep-19 14:34 39.069437 -108.707282 255 15508ft 205kts
28-Sep-19 14:35 39.063901 -108.778139 254 17907ft 193kts
28-Sep-19 14:36 39.061467 -108.849491 263 19704ft 206kts
28-Sep-19 14:37 39.060764 -108.923727 263 21156ft 207kts
28-Sep-19 14:38 39.061043 -109.002295 264 21725ft 236kts
28-Sep-19 14:39 39.061579 -109.089078 264 21718ft 245kts
28-Sep-19 14:40 39.062048 -109.177540 264 21711ft 248kts
28-Sep-19 14:41 39.062449 -109.267702 264 21700ft 253kts
28-Sep-19 14:42 39.062792 -109.359095 264 21691ft 255kts
28-Sep-19 14:43 39.063057 -109.450000 264 21685ft 253kts
28-Sep-19 14:44 39.063247 -109.540556 263 21680ft 252kts
28-Sep-19 14:45 39.063360 -109.631260 263 21673ft 254kts
28-Sep-19 14:46 39.063411 -109.721710 263 21671ft 252kts
28-Sep-19 14:47 39.063386 -109.811892 263 21662ft 252kts
28-Sep-19 14:48 39.063295 -109.902126 263 21662ft 251kts
28-Sep-19 14:49 39.063133 -109.991960 263 21661ft 251kts
28-Sep-19 14:50 39.062907 -110.081825 263 21658ft 250kts
28-Sep-19 14:51 39.062607 -110.171400 263 21660ft 250kts
28-Sep-19 14:52 39.062234 -110.261694 263 21660ft 252kts
28-Sep-19 14:53 39.061803 -110.351548 263 21663ft 250kts
28-Sep-19 14:54 39.061287 -110.442048 263 21663ft 252kts
28-Sep-19 14:55 39.060711 -110.532438 262 21665ft 251kts
28-Sep-19 14:56 39.060057 -110.623070 262 21665ft 252kts
28-Sep-19 14:57 39.059344 -110.713006 262 21671ft 250kts
28-Sep-19 14:58 39.058562 -110.802253 262 21679ft 249kts
28-Sep-19 14:59 39.057712 -110.891391 262 21679ft 248kts
28-Sep-19 15:00 39.056798 -110.980258 262 21680ft 248kts
28-Sep-19 15:01 39.055817 -111.069207 262 21681ft 248kts
28-Sep-19 15:02 39.054763 -111.158389 262 21642ft 249kts
28-Sep-19 15:03 39.053656 -111.246948 262 21682ft 248kts
28-Sep-19 15:04 39.053400 -111.339877 264 20294ft 256kts
28-Sep-19 15:05 39.056370 -111.424532 262 19038ft 234kts
28-Sep-19 15:06 39.051544 -111.506951 259 17496ft 231kts
28-Sep-19 15:07 39.049215 -111.586973 260 15992ft 215kts
28-Sep-19 15:08 39.047595 -111.662479 260 14497ft 212kts
28-Sep-19 15:09 39.046204 -111.740039 261 14051ft 219kts
28-Sep-19 15:10 39.018777 -111.799003 217 14011ft 198kts
28-Sep-19 15:11 38.976942 -111.845902 220 13697ft 205kts
28-Sep-19 15:12 38.934403 -111.898670 219 11617ft 209kts
28-Sep-19 15:13 38.890995 -111.947409 217 10271ft 209kts
28-Sep-19 15:14 38.847312 -111.993241 225 8650ft 200kts
28-Sep-19 15:15 38.813720 -112.043744 223 7064ft 163kts
28-Sep-19 15:16 38.784504 -112.070403 205 6278ft 107kts
28-Sep-19 15:17 38.759679 -112.085153 205 5727ft 92kts
28-Sep-19 15:18 38.740179 -112.096726 196 5321ft 18kts

Navigation Log

Ident Type
Flight plan parsing failed, navigation log unavailable